sensor_id;sensor_type;location;lat;lon;timestamp;pressure;altitude;pressure_sealevel;temperature
82400;BMP280;72039;48.812;8.198;2023-10-09T00:02:10;101071.50;;;15.64
82400;BMP280;72039;48.812;8.198;2023-10-09T00:04:41;101067.34;;;15.65
82400;BMP280;72039;48.812;8.198;2023-10-09T00:07:08;101066.00;;;15.66
82400;BMP280;72039;48.812;8.198;2023-10-09T00:09:35;101061.75;;;15.65
82400;BMP280;72039;48.812;8.198;2023-10-09T00:12:19;101067.25;;;15.63
82400;BMP280;72039;48.812;8.198;2023-10-09T00:14:48;101058.78;;;15.61
82400;BMP280;72039;48.812;8.198;2023-10-09T00:17:20;101060.22;;;15.62
82400;BMP280;72039;48.812;8.198;2023-10-09T00:19:47;101059.53;;;15.61
82400;BMP280;72039;48.812;8.198;2023-10-09T00:22:18;101056.75;;;15.61
82400;BMP280;72039;48.812;8.198;2023-10-09T00:24:51;101058.06;;;15.60
82400;BMP280;72039;48.812;8.198;2023-10-09T00:27:37;101054.56;;;15.60
82400;BMP280;72039;48.812;8.198;2023-10-09T00:30:10;101063.69;;;15.60
82400;BMP280;72039;48.812;8.198;2023-10-09T00:32:36;101061.59;;;15.61
82400;BMP280;72039;48.812;8.198;2023-10-09T00:35:02;101051.75;;;15.60
82400;BMP280;72039;48.812;8.198;2023-10-09T00:37:48;101050.19;;;15.55
82400;BMP280;72039;48.812;8.198;2023-10-09T00:40:16;101052.72;;;15.49
82400;BMP280;72039;48.812;8.198;2023-10-09T00:42:47;101052.63;;;15.47
82400;BMP280;72039;48.812;8.198;2023-10-09T00:45:14;101054.09;;;15.48
82400;BMP280;72039;48.812;8.198;2023-10-09T00:47:57;101047.13;;;15.49
82400;BMP280;72039;48.812;8.198;2023-10-09T00:50:27;101051.44;;;15.52
82400;BMP280;72039;48.812;8.198;2023-10-09T00:53:04;101053.44;;;15.49
82400;BMP280;72039;48.812;8.198;2023-10-09T00:55:40;101048.41;;;15.46
82400;BMP280;72039;48.812;8.198;2023-10-09T00:58:14;101050.94;;;15.39
82400;BMP280;72039;48.812;8.198;2023-10-09T01:00:42;101049.28;;;15.32
82400;BMP280;72039;48.812;8.198;2023-10-09T01:03:14;101053.91;;;15.26
82400;BMP280;72039;48.812;8.198;2023-10-09T01:05:46;101057.19;;;15.20
82400;BMP280;72039;48.812;8.198;2023-10-09T01:08:25;101043.69;;;15.14
82400;BMP280;72039;48.812;8.198;2023-10-09T01:10:55;101034.47;;;15.12
82400;BMP280;72039;48.812;8.198;2023-10-09T01:13:34;101037.19;;;15.10
82400;BMP280;72039;48.812;8.198;2023-10-09T01:16:23;101030.19;;;15.09
82400;BMP280;72039;48.812;8.198;2023-10-09T01:18:55;101032.88;;;15.07
82400;BMP280;72039;48.812;8.198;2023-10-09T01:21:25;101023.72;;;15.04
82400;BMP280;72039;48.812;8.198;2023-10-09T01:23:54;101026.41;;;15.02
82400;BMP280;72039;48.812;8.198;2023-10-09T01:26:32;101029.91;;;15.03
82400;BMP280;72039;48.812;8.198;2023-10-09T01:29:14;101027.84;;;15.03
82400;BMP280;72039;48.812;8.198;2023-10-09T01:31:47;101025.94;;;15.08
82400;BMP280;72039;48.812;8.198;2023-10-09T01:37:10;101019.25;;;14.99
82400;BMP280;72039;48.812;8.198;2023-10-09T01:39:53;101019.22;;;14.97
82400;BMP280;72039;48.812;8.198;2023-10-09T01:42:23;101022.03;;;14.97
82400;BMP280;72039;48.812;8.198;2023-10-09T01:44:57;101013.63;;;14.97
82400;BMP280;72039;48.812;8.198;2023-10-09T01:47:45;101010.19;;;14.99
82400;BMP280;72039;48.812;8.198;2023-10-09T01:50:17;101008.66;;;14.96
82400;BMP280;72039;48.812;8.198;2023-10-09T01:53:06;100999.56;;;14.95
82400;BMP280;72039;48.812;8.198;2023-10-09T01:55:34;100999.56;;;14.95
82400;BMP280;72039;48.812;8.198;2023-10-09T01:58:07;101007.19;;;14.94
82400;BMP280;72039;48.812;8.198;2023-10-09T02:00:52;101002.25;;;14.93
82400;BMP280;72039;48.812;8.198;2023-10-09T02:03:29;101000.13;;;14.91
82400;BMP280;72039;48.812;8.198;2023-10-09T02:05:59;101006.25;;;14.88
82400;BMP280;72039;48.812;8.198;2023-10-09T02:08:45;100996.34;;;14.85
82400;BMP280;72039;48.812;8.198;2023-10-09T02:11:15;101001.13;;;14.82
82400;BMP280;72039;48.812;8.198;2023-10-09T02:13:52;100994.19;;;14.83
82400;BMP280;72039;48.812;8.198;2023-10-09T02:16:28;100994.91;;;14.84
82400;BMP280;72039;48.812;8.198;2023-10-09T02:18:54;101000.59;;;14.86
82400;BMP280;72039;48.812;8.198;2023-10-09T02:21:25;100995.78;;;14.88
82400;BMP280;72039;48.812;8.198;2023-10-09T02:24:06;101000.72;;;14.90
82400;BMP280;72039;48.812;8.198;2023-10-09T02:26:34;101007.06;;;14.90
82400;BMP280;72039;48.812;8.198;2023-10-09T02:29:08;101004.28;;;14.90
82400;BMP280;72039;48.812;8.198;2023-10-09T02:31:39;101002.81;;;14.89
82400;BMP280;72039;48.812;8.198;2023-10-09T02:34:17;100999.91;;;14.87
82400;BMP280;72039;48.812;8.198;2023-10-09T02:36:42;100990.75;;;14.85
82400;BMP280;72039;48.812;8.198;2023-10-09T02:39:17;100995.00;;;14.86
82400;BMP280;72039;48.812;8.198;2023-10-09T02:41:56;100996.91;;;14.81
82400;BMP280;72039;48.812;8.198;2023-10-09T02:44:54;100993.94;;;14.77
82400;BMP280;72039;48.812;8.198;2023-10-09T02:47:26;100985.38;;;14.73
82400;BMP280;72039;48.812;8.198;2023-10-09T02:50:04;100982.50;;;14.71
82400;BMP280;72039;48.812;8.198;2023-10-09T02:52:49;100981.06;;;14.70
82400;BMP280;72039;48.812;8.198;2023-10-09T02:55:24;100976.03;;;14.66
82400;BMP280;72039;48.812;8.198;2023-10-09T02:57:54;100972.41;;;14.64
82400;BMP280;72039;48.812;8.198;2023-10-09T03:00:36;100975.31;;;14.66
82400;BMP280;72039;48.812;8.198;2023-10-09T03:03:04;100978.69;;;14.62
82400;BMP280;72039;48.812;8.198;2023-10-09T03:05:35;100972.25;;;14.60
82400;BMP280;72039;48.812;8.198;2023-10-09T03:08:03;100969.31;;;14.56
82400;BMP280;72039;48.812;8.198;2023-10-09T03:10:29;100965.63;;;14.51
82400;BMP280;72039;48.812;8.198;2023-10-09T03:12:54;100966.88;;;14.48
82400;BMP280;72039;48.812;8.198;2023-10-09T03:15:21;100962.75;;;14.49
82400;BMP280;72039;48.812;8.198;2023-10-09T03:17:46;100966.25;;;14.50
82400;BMP280;72039;48.812;8.198;2023-10-09T03:20:16;100964.91;;;14.51
82400;BMP280;72039;48.812;8.198;2023-10-09T03:22:46;100962.09;;;14.51
82400;BMP280;72039;48.812;8.198;2023-10-09T03:25:17;100957.94;;;14.52
82400;BMP280;72039;48.812;8.198;2023-10-09T03:27:43;100954.47;;;14.51
82400;BMP280;72039;48.812;8.198;2023-10-09T03:30:16;100945.34;;;14.51
82400;BMP280;72039;48.812;8.198;2023-10-09T03:32:47;100945.34;;;14.51
82400;BMP280;72039;48.812;8.198;2023-10-09T03:35:19;100941.91;;;14.52
82400;BMP280;72039;48.812;8.198;2023-10-09T03:37:54;100943.38;;;14.53
82400;BMP280;72039;48.812;8.198;2023-10-09T03:40:25;100937.84;;;14.55
82400;BMP280;72039;48.812;8.198;2023-10-09T03:42:51;100948.41;;;14.57
82400;BMP280;72039;48.812;8.198;2023-10-09T03:45:16;100943.59;;;14.59
82400;BMP280;72039;48.812;8.198;2023-10-09T03:48:00;100950.00;;;14.62
82400;BMP280;72039;48.812;8.198;2023-10-09T03:50:46;100938.91;;;14.64
82400;BMP280;72039;48.812;8.198;2023-10-09T03:53:11;100948.72;;;14.65
82400;BMP280;72039;48.812;8.198;2023-10-09T03:55:38;100937.56;;;14.65
82400;BMP280;72039;48.812;8.198;2023-10-09T03:58:04;100938.28;;;14.65
82400;BMP280;72039;48.812;8.198;2023-10-09T04:00:31;100942.50;;;14.66
82400;BMP280;72039;48.812;8.198;2023-10-09T04:02:59;100940.53;;;14.69
82400;BMP280;72039;48.812;8.198;2023-10-09T04:05:25;100944.09;;;14.72
82400;BMP280;72039;48.812;8.198;2023-10-09T04:07:51;100950.56;;;14.76
82400;BMP280;72039;48.812;8.198;2023-10-09T04:10:19;100937.44;;;14.79
82400;BMP280;72039;48.812;8.198;2023-10-09T04:13:22;100947.97;;;14.80
82400;BMP280;72039;48.812;8.198;2023-10-09T04:15:50;100952.75;;;14.78
82400;BMP280;72039;48.812;8.198;2023-10-09T04:18:19;100950.66;;;14.78
82400;BMP280;72039;48.812;8.198;2023-10-09T04:20:53;100950.75;;;14.80
82400;BMP280;72039;48.812;8.198;2023-10-09T04:23:36;100948.66;;;14.81
82400;BMP280;72039;48.812;8.198;2023-10-09T04:26:22;100952.03;;;14.77
82400;BMP280;72039;48.812;8.198;2023-10-09T04:28:50;100949.13;;;14.75
82400;BMP280;72039;48.812;8.198;2023-10-09T04:31:18;100952.56;;;14.74
82400;BMP280;72039;48.812;8.198;2023-10-09T04:33:47;100953.94;;;14.73
82400;BMP280;72039;48.812;8.198;2023-10-09T04:36:34;100960.31;;;14.75
82400;BMP280;72039;48.812;8.198;2023-10-09T04:39:11;100954.81;;;14.77
82400;BMP280;72039;48.812;8.198;2023-10-09T04:41:36;100961.94;;;14.80
82400;BMP280;72039;48.812;8.198;2023-10-09T04:44:08;100970.47;;;14.84
82400;BMP280;72039;48.812;8.198;2023-10-09T04:46:57;100973.38;;;14.86
82400;BMP280;72039;48.812;8.198;2023-10-09T04:49:35;100969.84;;;14.86
82400;BMP280;72039;48.812;8.198;2023-10-09T04:52:21;100971.97;;;14.87
82400;BMP280;72039;48.812;8.198;2023-10-09T04:54:59;100967.84;;;14.88
82400;BMP280;72039;48.812;8.198;2023-10-09T04:57:42;100972.06;;;14.89
82400;BMP280;72039;48.812;8.198;2023-10-09T05:00:08;100967.13;;;14.88
82400;BMP280;72039;48.812;8.198;2023-10-09T05:03:02;100976.78;;;14.85
82400;BMP280;72039;48.812;8.198;2023-10-09T05:05:39;100965.50;;;14.83
82400;BMP280;72039;48.812;8.198;2023-10-09T05:08:08;100970.38;;;14.82
82400;BMP280;72039;48.812;8.198;2023-10-09T05:11:03;100975.09;;;14.78
82400;BMP280;72039;48.812;8.198;2023-10-09T05:13:33;100979.19;;;14.75
82400;BMP280;72039;48.812;8.198;2023-10-09T05:16:17;100981.38;;;14.78
82400;BMP280;72039;48.812;8.198;2023-10-09T05:18:56;100988.06;;;14.87
82400;BMP280;72039;48.812;8.198;2023-10-09T05:21:42;100990.44;;;14.94
82400;BMP280;72039;48.812;8.198;2023-10-09T05:24:08;100992.78;;;15.00
82400;BMP280;72039;48.812;8.198;2023-10-09T05:26:41;100997.09;;;15.03
82400;BMP280;72039;48.812;8.198;2023-10-09T05:31:51;101004.81;;;15.05
82400;BMP280;72039;48.812;8.198;2023-10-09T05:34:35;100995.66;;;15.02
82400;BMP280;72039;48.812;8.198;2023-10-09T05:37:19;101003.31;;;15.02
82400;BMP280;72039;48.812;8.198;2023-10-09T05:39:51;101007.56;;;15.03
82400;BMP280;72039;48.812;8.198;2023-10-09T05:42:31;101004.81;;;15.05
82400;BMP280;72039;48.812;8.198;2023-10-09T05:45:06;101010.50;;;15.07
82400;BMP280;72039;48.812;8.198;2023-10-09T05:47:51;101017.53;;;15.08
82400;BMP280;72039;48.812;8.198;2023-10-09T05:50:24;101007.06;;;15.08
82400;BMP280;72039;48.812;8.198;2023-10-09T05:56:12;101003.41;;;15.04
82400;BMP280;72039;48.812;8.198;2023-10-09T05:58:56;101005.28;;;14.99
82400;BMP280;72039;48.812;8.198;2023-10-09T06:01:40;101007.19;;;14.94
82400;BMP280;72039;48.812;8.198;2023-10-09T06:04:25;101007.16;;;14.92
82400;BMP280;72039;48.812;8.198;2023-10-09T06:07:09;101001.56;;;14.92
82400;BMP280;72039;48.812;8.198;2023-10-09T06:09:38;101005.06;;;14.93
82400;BMP280;72039;48.812;8.198;2023-10-09T06:12:20;101000.38;;;14.98
82400;BMP280;72039;48.812;8.198;2023-10-09T06:15:07;100999.34;;;15.07
82400;BMP280;72039;48.812;8.198;2023-10-09T06:17:51;101007.41;;;15.16
82400;BMP280;72039;48.812;8.198;2023-10-09T06:20:17;100995.28;;;15.28
82400;BMP280;72039;48.812;8.198;2023-10-09T06:23:14;100993.59;;;15.38
82400;BMP280;72039;48.812;8.198;2023-10-09T06:26:02;100999.56;;;15.49
82400;BMP280;72039;48.812;8.198;2023-10-09T06:28:47;100999.94;;;15.59
82400;BMP280;72039;48.812;8.198;2023-10-09T06:31:15;101006.41;;;15.63
82400;BMP280;72039;48.812;8.198;2023-10-09T06:34:15;101005.31;;;15.71
82400;BMP280;72039;48.812;8.198;2023-10-09T06:36:41;101006.97;;;15.78
82400;BMP280;72039;48.812;8.198;2023-10-09T06:39:18;101009.19;;;15.81
82400;BMP280;72039;48.812;8.198;2023-10-09T06:42:02;101007.88;;;15.84
82400;BMP280;72039;48.812;8.198;2023-10-09T06:44:35;101013.72;;;15.90
82400;BMP280;72039;48.812;8.198;2023-10-09T06:47:17;101012.59;;;15.98
82400;BMP280;72039;48.812;8.198;2023-10-09T06:49:43;101012.66;;;16.00
82400;BMP280;72039;48.812;8.198;2023-10-09T06:52:28;101010.09;;;16.06
82400;BMP280;72039;48.812;8.198;2023-10-09T06:55:14;101010.16;;;16.08
82400;BMP280;72039;48.812;8.198;2023-10-09T06:57:45;101007.47;;;16.12
82400;BMP280;72039;48.812;8.198;2023-10-09T07:00:14;101011.22;;;16.18
82400;BMP280;72039;48.812;8.198;2023-10-09T07:02:58;101017.06;;;16.25
82400;BMP280;72039;48.812;8.198;2023-10-09T07:05:30;101023.66;;;16.33
82400;BMP280;72039;48.812;8.198;2023-10-09T07:08:13;101026.75;;;16.41
82400;BMP280;72039;48.812;8.198;2023-10-09T07:10:56;101021.38;;;16.48
82400;BMP280;72039;48.812;8.198;2023-10-09T07:13:42;101021.41;;;16.50
82400;BMP280;72039;48.812;8.198;2023-10-09T07:16:12;101025.59;;;16.49
82400;BMP280;72039;48.812;8.198;2023-10-09T07:18:56;101027.81;;;16.52
82400;BMP280;72039;48.812;8.198;2023-10-09T07:21:36;101037.78;;;16.57
82400;BMP280;72039;48.812;8.198;2023-10-09T07:24:05;101042.81;;;16.61
82400;BMP280;72039;48.812;8.198;2023-10-09T07:26:40;101042.25;;;16.64
82400;BMP280;72039;48.812;8.198;2023-10-09T07:29:15;101050.00;;;16.66
82400;BMP280;72039;48.812;8.198;2023-10-09T07:31:48;101058.47;;;16.68
82400;BMP280;72039;48.812;8.198;2023-10-09T07:34:23;101055.81;;;16.72
82400;BMP280;72039;48.812;8.198;2023-10-09T07:36:58;101048.22;;;16.75
82400;BMP280;72039;48.812;8.198;2023-10-09T07:39:30;101042.06;;;16.80
82400;BMP280;72039;48.812;8.198;2023-10-09T07:42:04;101041.56;;;16.86
82400;BMP280;72039;48.812;8.198;2023-10-09T07:44:43;101043.69;;;16.87
82400;BMP280;72039;48.812;8.198;2023-10-09T07:50:38;101035.50;;;16.94
82400;BMP280;72039;48.812;8.198;2023-10-09T07:53:29;101035.50;;;16.94
82400;BMP280;72039;48.812;8.198;2023-10-09T07:56:17;101036.94;;;16.95
82400;BMP280;72039;48.812;8.198;2023-10-09T07:58:52;101041.94;;;16.98
82400;BMP280;72039;48.812;8.198;2023-10-09T08:01:51;101035.94;;;17.08
82400;BMP280;72039;48.812;8.198;2023-10-09T08:11:07;101064.44;;;17.44
82400;BMP280;72039;48.812;8.198;2023-10-09T08:14:03;101068.28;;;17.55
82400;BMP280;72039;48.812;8.198;2023-10-09T08:16:37;101060.88;;;17.65
82400;BMP280;72039;48.812;8.198;2023-10-09T08:22:15;101053.75;;;17.86
82400;BMP280;72039;48.812;8.198;2023-10-09T08:24:53;101048.38;;;17.95
82400;BMP280;72039;48.812;8.198;2023-10-09T08:30:04;101060.06;;;18.11
82400;BMP280;72039;48.812;8.198;2023-10-09T08:32:56;101060.19;;;18.15
82400;BMP280;72039;48.812;8.198;2023-10-09T08:35:33;101054.66;;;18.19
82400;BMP280;72039;48.812;8.198;2023-10-09T08:38:11;101066.06;;;18.25
82400;BMP280;72039;48.812;8.198;2023-10-09T08:40:41;101043.72;;;18.29
82400;BMP280;72039;48.812;8.198;2023-10-09T08:43:13;101049.50;;;18.35
82400;BMP280;72039;48.812;8.198;2023-10-09T08:45:55;101052.41;;;18.39
82400;BMP280;72039;48.812;8.198;2023-10-09T08:48:26;101060.34;;;18.47
82400;BMP280;72039;48.812;8.198;2023-10-09T08:50:53;101050.75;;;18.56
82400;BMP280;72039;48.812;8.198;2023-10-09T08:53:22;101058.06;;;18.67
82400;BMP280;72039;48.812;8.198;2023-10-09T08:55:49;101048.47;;;18.77
82400;BMP280;72039;48.812;8.198;2023-10-09T08:58:17;101044.47;;;18.88
82400;BMP280;72039;48.812;8.198;2023-10-09T09:00:57;101042.69;;;19.01
82400;BMP280;72039;48.812;8.198;2023-10-09T09:03:26;101048.59;;;19.13
82400;BMP280;72039;48.812;8.198;2023-10-09T09:05:59;101049.53;;;19.24
82400;BMP280;72039;48.812;8.198;2023-10-09T09:08:29;101048.47;;;19.37
82400;BMP280;72039;48.812;8.198;2023-10-09T09:16:25;101063.66;;;19.92
82400;BMP280;72039;48.812;8.198;2023-10-09T09:19:01;101071.81;;;20.12
82400;BMP280;72039;48.812;8.198;2023-10-09T09:21:37;101066.47;;;20.30
82400;BMP280;72039;48.812;8.198;2023-10-09T09:24:10;101069.63;;;20.48
82400;BMP280;72039;48.812;8.198;2023-10-09T09:26:43;101060.84;;;20.70
82400;BMP280;72039;48.812;8.198;2023-10-09T09:29:13;101055.31;;;20.79
82400;BMP280;72039;48.812;8.198;2023-10-09T09:31:51;101057.47;;;20.80
82400;BMP280;72039;48.812;8.198;2023-10-09T09:34:20;101051.25;;;20.88
82400;BMP280;72039;48.812;8.198;2023-10-09T09:36:55;101052.09;;;20.96
82400;BMP280;72039;48.812;8.198;2023-10-09T09:39:27;101041.09;;;21.17
82400;BMP280;72039;48.812;8.198;2023-10-09T09:41:59;101042.09;;;21.38
82400;BMP280;72039;48.812;8.198;2023-10-09T09:44:39;101041.56;;;21.53
82400;BMP280;72039;48.812;8.198;2023-10-09T09:47:13;101039.72;;;21.76
82400;BMP280;72039;48.812;8.198;2023-10-09T09:49:48;101043.59;;;22.12
82400;BMP280;72039;48.812;8.198;2023-10-09T09:52:16;101038.84;;;22.32
82400;BMP280;72039;48.812;8.198;2023-10-09T09:54:43;101035.53;;;22.56
82400;BMP280;72039;48.812;8.198;2023-10-09T09:57:09;101040.59;;;22.76
82400;BMP280;72039;48.812;8.198;2023-10-09T09:59:39;101042.97;;;23.23
82400;BMP280;72039;48.812;8.198;2023-10-09T10:02:07;101031.81;;;23.57
82400;BMP280;72039;48.812;8.198;2023-10-09T10:04:38;101037.47;;;23.61
82400;BMP280;72039;48.812;8.198;2023-10-09T10:07:07;101038.91;;;23.75
82400;BMP280;72039;48.812;8.198;2023-10-09T10:09:41;101033.28;;;23.87
82400;BMP280;72039;48.812;8.198;2023-10-09T10:12:11;101029.03;;;23.98
82400;BMP280;72039;48.812;8.198;2023-10-09T10:14:55;101035.44;;;24.13
82400;BMP280;72039;48.812;8.198;2023-10-09T10:17:24;101029.09;;;24.10
82400;BMP280;72039;48.812;8.198;2023-10-09T10:20:04;101028.34;;;24.30
82400;BMP280;72039;48.812;8.198;2023-10-09T10:22:51;101022.66;;;24.44
82400;BMP280;72039;48.812;8.198;2023-10-09T10:28:25;101021.25;;;24.54
82400;BMP280;72039;48.812;8.198;2023-10-09T10:31:09;101030.47;;;24.50
82400;BMP280;72039;48.812;8.198;2023-10-09T10:34:03;101023.34;;;24.55
82400;BMP280;72039;48.812;8.198;2023-10-09T10:36:34;101014.84;;;24.53
82400;BMP280;72039;48.812;8.198;2023-10-09T10:39:06;101012.75;;;24.45
82400;BMP280;72039;48.812;8.198;2023-10-09T10:41:59;101016.28;;;24.54
82400;BMP280;72039;48.812;8.198;2023-10-09T10:44:30;101023.31;;;24.75
82400;BMP280;72039;48.812;8.198;2023-10-09T10:47:11;101017.47;;;25.22
82400;BMP280;72039;48.812;8.198;2023-10-09T10:49:53;101008.06;;;25.52
82400;BMP280;72039;48.812;8.198;2023-10-09T10:52:24;101003.69;;;25.74
82400;BMP280;72039;48.812;8.198;2023-10-09T10:55:09;100997.69;;;26.10
82400;BMP280;72039;48.812;8.198;2023-10-09T10:58:17;100997.03;;;26.08
82400;BMP280;72039;48.812;8.198;2023-10-09T11:00:55;100990.06;;;25.89
82400;BMP280;72039;48.812;8.198;2023-10-09T11:03:25;100999.47;;;25.69
82400;BMP280;72039;48.812;8.198;2023-10-09T11:06:31;101006.75;;;25.41
82400;BMP280;72039;48.812;8.198;2023-10-09T11:09:11;101000.47;;;25.18
82400;BMP280;72039;48.812;8.198;2023-10-09T11:11:50;101009.06;;;25.00
82400;BMP280;72039;48.812;8.198;2023-10-09T11:14:20;101004.16;;;24.88
82400;BMP280;72039;48.812;8.198;2023-10-09T11:16:50;101008.41;;;24.81
82400;BMP280;72039;48.812;8.198;2023-10-09T11:19:21;101004.16;;;24.76
82400;BMP280;72039;48.812;8.198;2023-10-09T11:21:53;101002.75;;;24.75
82400;BMP280;72039;48.812;8.198;2023-10-09T11:24:47;100996.41;;;24.64
82400;BMP280;72039;48.812;8.198;2023-10-09T11:27:27;101008.47;;;24.46
82400;BMP280;72039;48.812;8.198;2023-10-09T11:30:00;101016.28;;;24.30
82400;BMP280;72039;48.812;8.198;2023-10-09T11:32:30;101010.63;;;24.19
82400;BMP280;72039;48.812;8.198;2023-10-09T11:35:14;101007.81;;;24.13
82400;BMP280;72039;48.812;8.198;2023-10-09T11:37:58;101013.47;;;24.03
82400;BMP280;72039;48.812;8.198;2023-10-09T11:40:38;101003.53;;;23.92
82400;BMP280;72039;48.812;8.198;2023-10-09T11:43:19;101002.09;;;23.83
82400;BMP280;72039;48.812;8.198;2023-10-09T11:46:10;100995.00;;;23.76
82400;BMP280;72039;48.812;8.198;2023-10-09T11:49:14;100986.50;;;23.74
82400;BMP280;72039;48.812;8.198;2023-10-09T11:51:51;100981.56;;;23.74
82400;BMP280;72039;48.812;8.198;2023-10-09T11:54:42;100976.59;;;23.81
82400;BMP280;72039;48.812;8.198;2023-10-09T11:57:09;100965.25;;;24.01
82400;BMP280;72039;48.812;8.198;2023-10-09T11:59:34;100960.25;;;24.30
82400;BMP280;72039;48.812;8.198;2023-10-09T12:02:07;100948.88;;;24.57
82400;BMP280;72039;48.812;8.198;2023-10-09T12:11:07;100935.88;;;25.09
82400;BMP280;72039;48.812;8.198;2023-10-09T12:13:38;100926.59;;;25.20
82400;BMP280;72039;48.812;8.198;2023-10-09T12:18:33;100910.66;;;25.62
82400;BMP280;72039;48.812;8.198;2023-10-09T12:21:00;100912.03;;;25.71
82400;BMP280;72039;48.812;8.198;2023-10-09T12:23:30;100903.81;;;26.10
82400;BMP280;72039;48.812;8.198;2023-10-09T12:26:01;100905.53;;;26.47
82400;BMP280;72039;48.812;8.198;2023-10-09T12:28:35;100908.03;;;26.77
82400;BMP280;72039;48.812;8.198;2023-10-09T12:31:32;100896.91;;;27.06
82400;BMP280;72039;48.812;8.198;2023-10-09T12:34:05;100907.84;;;27.39
82400;BMP280;72039;48.812;8.198;2023-10-09T12:36:44;100902.34;;;27.66
82400;BMP280;72039;48.812;8.198;2023-10-09T12:39:19;100891.91;;;27.93
82400;BMP280;72039;48.812;8.198;2023-10-09T12:42:25;100889.13;;;28.26
82400;BMP280;72039;48.812;8.198;2023-10-09T12:52:11;100883.47;;;28.88
82400;BMP280;72039;48.812;8.198;2023-10-09T12:55:10;100887.50;;;29.00
82400;BMP280;72039;48.812;8.198;2023-10-09T12:57:55;100896.38;;;29.16
82400;BMP280;72039;48.812;8.198;2023-10-09T13:00:30;100902.34;;;29.35
82400;BMP280;72039;48.812;8.198;2023-10-09T13:03:04;100894.56;;;29.59
82400;BMP280;72039;48.812;8.198;2023-10-09T13:08:50;100890.00;;;30.67
82400;BMP280;72039;48.812;8.198;2023-10-09T13:11:42;100882.59;;;31.60
82400;BMP280;72039;48.812;8.198;2023-10-09T13:14:10;100874.53;;;32.59
82400;BMP280;72039;48.812;8.198;2023-10-09T13:16:49;100863.00;;;33.76
82400;BMP280;72039;48.812;8.198;2023-10-09T13:19:24;100853.72;;;34.49
82400;BMP280;72039;48.812;8.198;2023-10-09T13:21:52;100852.72;;;35.12
82400;BMP280;72039;48.812;8.198;2023-10-09T13:24:38;100850.31;;;35.44
82400;BMP280;72039;48.812;8.198;2023-10-09T13:27:30;100847.16;;;36.01
82400;BMP280;72039;48.812;8.198;2023-10-09T13:30:39;100840.72;;;36.98
82400;BMP280;72039;48.812;8.198;2023-10-09T13:33:17;100834.06;;;37.91
82400;BMP280;72039;48.812;8.198;2023-10-09T13:35:52;100841.03;;;38.38
82400;BMP280;72039;48.812;8.198;2023-10-09T13:38:23;100836.13;;;38.99
82400;BMP280;72039;48.812;8.198;2023-10-09T13:41:11;100829.66;;;39.28
82400;BMP280;72039;48.812;8.198;2023-10-09T13:43:48;100838.59;;;39.46
82400;BMP280;72039;48.812;8.198;2023-10-09T13:50:06;100840.81;;;37.76
82400;BMP280;72039;48.812;8.198;2023-10-09T13:52:40;100846.44;;;36.00
82400;BMP280;72039;48.812;8.198;2023-10-09T13:55:18;100848.66;;;34.06
82400;BMP280;72039;48.812;8.198;2023-10-09T13:58:22;100861.34;;;32.11
82400;BMP280;72039;48.812;8.198;2023-10-09T14:01:31;100853.91;;;30.77
82400;BMP280;72039;48.812;8.198;2023-10-09T14:03:59;100855.69;;;29.95
82400;BMP280;72039;48.812;8.198;2023-10-09T14:09:45;100852.50;;;28.68
82400;BMP280;72039;48.812;8.198;2023-10-09T14:12:32;100857.78;;;28.22
82400;BMP280;72039;48.812;8.198;2023-10-09T14:14:59;100856.31;;;27.88
82400;BMP280;72039;48.812;8.198;2023-10-09T14:17:28;100854.66;;;27.64
82400;BMP280;72039;48.812;8.198;2023-10-09T14:26:41;100850.78;;;26.95
82400;BMP280;72039;48.812;8.198;2023-10-09T14:32:30;100847.53;;;26.77
82400;BMP280;72039;48.812;8.198;2023-10-09T14:35:08;100849.78;;;26.68
82400;BMP280;72039;48.812;8.198;2023-10-09T14:37:38;100847.72;;;26.60
82400;BMP280;72039;48.812;8.198;2023-10-09T14:40:15;100851.38;;;26.55
82400;BMP280;72039;48.812;8.198;2023-10-09T14:42:46;100848.59;;;26.49
82400;BMP280;72039;48.812;8.198;2023-10-09T14:45:37;100846.56;;;26.41
82400;BMP280;72039;48.812;8.198;2023-10-09T14:48:18;100843.78;;;26.35
82400;BMP280;72039;48.812;8.198;2023-10-09T14:51:00;100839.59;;;26.28
82400;BMP280;72039;48.812;8.198;2023-10-09T14:56:01;100838.38;;;26.15
82400;BMP280;72039;48.812;8.198;2023-10-09T14:58:29;100845.50;;;26.09
82400;BMP280;72039;48.812;8.198;2023-10-09T15:01:08;100847.75;;;26.01
82400;BMP280;72039;48.812;8.198;2023-10-09T15:03:40;100839.31;;;25.91
82400;BMP280;72039;48.812;8.198;2023-10-09T15:06:07;100839.44;;;25.80
82400;BMP280;72039;48.812;8.198;2023-10-09T15:08:36;100841.66;;;25.72
82400;BMP280;72039;48.812;8.198;2023-10-09T15:11:05;100831.75;;;25.67
82400;BMP280;72039;48.812;8.198;2023-10-09T15:13:33;100832.50;;;25.61
82400;BMP280;72039;48.812;8.198;2023-10-09T15:16:03;100829.75;;;25.55
82400;BMP280;72039;48.812;8.198;2023-10-09T15:18:32;100830.47;;;25.51
82400;BMP280;72039;48.812;8.198;2023-10-09T15:21:10;100826.28;;;25.44
82400;BMP280;72039;48.812;8.198;2023-10-09T15:23:44;100831.28;;;25.40
82400;BMP280;72039;48.812;8.198;2023-10-09T15:29:37;100844.88;;;25.25
82400;BMP280;72039;48.812;8.198;2023-10-09T15:32:09;100842.09;;;25.19
82400;BMP280;72039;48.812;8.198;2023-10-09T15:34:47;100837.91;;;25.14
82400;BMP280;72039;48.812;8.198;2023-10-09T15:37:13;100836.44;;;25.11
82400;BMP280;72039;48.812;8.198;2023-10-09T15:39:42;100840.03;;;25.07
82400;BMP280;72039;48.812;8.198;2023-10-09T15:42:08;100834.41;;;25.01
82400;BMP280;72039;48.812;8.198;2023-10-09T15:44:35;100834.44;;;24.95
82400;BMP280;72039;48.812;8.198;2023-10-09T15:47:13;100833.03;;;24.90
82400;BMP280;72039;48.812;8.198;2023-10-09T15:49:41;100844.44;;;24.86
82400;BMP280;72039;48.812;8.198;2023-10-09T15:52:11;100842.34;;;24.78
82400;BMP280;72039;48.812;8.198;2023-10-09T15:54:41;100843.09;;;24.72
82400;BMP280;72039;48.812;8.198;2023-10-09T15:57:09;100843.81;;;24.67
82400;BMP280;72039;48.812;8.198;2023-10-09T15:59:35;100855.94;;;24.59
82400;BMP280;72039;48.812;8.198;2023-10-09T16:02:04;100846.03;;;24.52